Details From KWWD - CAPE MAY CO
To KNHK - Patuxent River NAS
Flight Number -
Tags decoded
Created
Modified
Stats Distance 83 nm / 153 km
Max Altitude 0 ft / 0 m
Waypoints 2
Social Downloads 0
Likes 0
Share VATSIM

Download

Looking for another format? Having issues loading an existing format? Contact us
Advertisement - Login to hide

Notes

Requested: KWWD KNHK

Route

KWWD KNHK

ID Type Via Altitude Latitude Longitude Leg Dist Tot Dist Heading (true) Name
O KWWD APT - 0 ft / 0 m 39.00851˚ -74.90858˚ - 0 nm - CAPE MAY CO
O KNHK APT - 0 ft / 0 m 38.28577˚ -76.41182˚ 82 nm 82 nm 239° / 238° Patuxent River NAS

Altitude Profile

Advertisement - Login to hide

KWWD

Details ICAO KWWD (WWD)
Name CAPE MAY CO
Region United States
Timezone America/New_York (UTC-5.0)
Stats Elevation 23 ft / 7 m (AMSL)
Location 39.008507° -74.908585°
Runways 2
Magnetic Variation 12.046° W

METAR

KWWD 110155Z AUTO 22009KT 10SM CLR 02/M02 A3009 RMK AO2 SLP190 T00221022 FZRANO

Decode

TAF

Not found

Departure Runways

ID Width Length Bearing (true) Bearing (mag) Surface Threshold Offset Overrun Length
01 151 ft / 46 m 5,010 ft / 1,527 m 359.61° 11.66° Asphalt 0 ft / 0 m 0 ft / 0 m
10 151 ft / 46 m 4,987 ft / 1,520 m 89.59° 101.64° Asphalt 0 ft / 0 m 0 ft / 0 m
19 151 ft / 46 m 5,010 ft / 1,527 m 179.61° 191.66° Asphalt 79 ft / 24 m 0 ft / 0 m
28 151 ft / 46 m 4,987 ft / 1,520 m 269.60° 281.65° Asphalt 0 ft / 0 m 0 ft / 0 m

KNHK

Details ICAO KNHK (NHK)
Name Patuxent River NAS
Region United States
Timezone America/New_York (UTC-5.0)
Stats Elevation 39 ft / 12 m (AMSL)
Location 38.285773° -76.411820°
Runways 3
Magnetic Variation 11.067° W

METAR

KNHK 110152Z AUTO 21007KT 10SM BKN100 02/M02 A3009 RMK AO2 SLP188 T00221022 $

Decode

TAF

Not found

Destination Runways

ID Width Length Bearing (true) Bearing (mag) Surface Threshold Offset Overrun Length
02 75 ft / 23 m 5,031 ft / 1,534 m 8.10° 19.17° Asphalt 0 ft / 0 m 0 ft / 0 m
06 200 ft / 61 m 11,803 ft / 3,598 m 49.01° 60.08° Concrete 0 ft / 0 m 0 ft / 0 m
14 200 ft / 61 m 9,733 ft / 2,967 m 126.07° 137.14° Concrete 0 ft / 0 m 361 ft / 110 m
20 75 ft / 23 m 5,031 ft / 1,534 m 188.10° 199.17° Asphalt 0 ft / 0 m 0 ft / 0 m
24 200 ft / 61 m 11,803 ft / 3,598 m 229.03° 240.10° Concrete 0 ft / 0 m 0 ft / 0 m
32 200 ft / 61 m 9,733 ft / 2,967 m 306.09° 317.16° Concrete 0 ft / 0 m 0 ft / 0 m